This is the latest recevied weather packets stored in our database for station/object BMCB-31. If no packets are shown the sender has not sent any weather packets the latest 10 day(s).
| Time | Temp. | Humidity | Pressure | Rain* | Wind** | Luminosity | Snow |
|---|---|---|---|---|---|---|---|
| 1777360823 | 12.78° C | 51% | 1020.9 hPa | 0 mm | - | 280 W/m² | - |
| 1777357254 | 7.22° C | 79% | 1021.6 hPa | 0 mm | - | 116 W/m² | - |
| 1777336856 | 5° C | 79% | 1022.4 hPa | 0 mm | - | 0 W/m² | - |
| 1777336254 | 5° C | 79% | 1022.5 hPa | 0 mm | - | 0 W/m² | - |
| 1777332056 | 6.67° C | 71% | 1022.3 hPa | 0 mm | - | 0 W/m² | - |
| 1777329057 | 8.33° C | 71% | 1022.3 hPa | 0 mm | - | 0 W/m² | - |
| 1777328455 | 8.89° C | 62% | 1022.1 hPa | 0 mm | - | 0 W/m² | - |
| 1777323663 | 8.33° C | 66% | 1022.4 hPa | 0 mm | - | 0 W/m² | - |
| 1777315253 | 13.89° C | 46% | 1021.9 hPa | 0 mm | - | 12 W/m² | - |
| 1777309857 | 15.56° C | 39% | 1021.8 hPa | 0 mm | - | 78 W/m² | - |
| 1777307458 | 16.11° C | 34% | 1021.7 hPa | 0 mm | - | 124 W/m² | - |
| 1777302656 | 17.22° C | 36% | 1022.1 hPa | 0 mm | - | 396 W/m² | - |
| 1777300854 | 17.22° C | 38% | 1022.4 hPa | 0 mm | - | 338 W/m² | - |
| 1777297253 | 16.67° C | 43% | 1023 hPa | 0 mm | - | 388 W/m² | - |
| 1777293052 | 16.11° C | 47% | 1023.4 hPa | 0 mm | - | 488 W/m² | - |
| 1777291859 | 16.11° C | 46% | 1023.6 hPa | 0 mm | - | 362 W/m² | - |
| 1777290054 | 15.56° C | 48% | 1024 hPa | 0 mm | - | 506 W/m² | - |
| 1777285259 | 15° C | 50% | 1024.4 hPa | 0 mm | - | 480 W/m² | - |
| 1777272056 | 7.22° C | 71% | 1026.1 hPa | 0 mm | - | 156 W/m² | - |
| 1777260658 | 2.22° C | 83% | 1026.3 hPa | 0 mm | - | 0 W/m² | - |
| 1777253459 | 2.78° C | 83% | 1026.4 hPa | 0 mm | - | 0 W/m² | - |
* Rain latest hour (hover to see other rain measurements)
** Current wind speed in m/s (hover to see current wind gust speed)